Time;durP1;ratioP1;P1;durP2;ratioP2;P2;SDS_P1;SDS_P2;PMS_P1;PMS_P2;Temp;Humidity;BMP_temperature;BMP_pressure;BME280_temperature;BME280_humidity;BME280_pressure;Samples;Min_cycle;Max_cycle;Signal;HPM_P1;HPM_P2
2022/12/25 00:00:25;;;;;;;23.88;7.85;;;10.00;99.90;;;;;;5049270;28;20053;-45
2022/12/25 00:02:51;;;;;;;26.27;8.57;;;10.00;99.90;;;;;;5049896;28;20017;-40
2022/12/25 00:05:16;;;;;;;27.20;9.57;;;10.00;99.90;;;;;;5050986;28;20025;-38
2022/12/25 00:07:42;;;;;;;28.00;9.73;;;10.00;99.90;;;;;;5052080;28;20104;-41
2022/12/25 00:10:08;;;;;;;27.52;10.32;;;10.00;99.90;;;;;;5032363;28;20033;-40
2022/12/25 00:12:34;;;;;;;22.77;7.93;;;10.00;99.90;;;;;;5051429;28;20036;-44
2022/12/25 00:14:59;;;;;;;26.27;8.20;;;9.90;99.90;;;;;;5052273;28;20436;-39
2022/12/25 00:17:25;;;;;;;26.15;8.80;;;9.90;99.90;;;;;;5033980;28;20033;-40
2022/12/25 00:19:50;;;;;;;25.05;7.95;;;9.90;99.90;;;;;;5051776;28;20028;-40
2022/12/25 00:22:16;;;;;;;26.08;8.25;;;9.90;99.90;;;;;;5033161;28;20117;-42
2022/12/25 00:24:42;;;;;;;26.40;9.57;;;9.90;99.90;;;;;;5051751;28;20110;-40
2022/12/25 00:27:07;;;;;;;21.67;8.75;;;9.90;99.90;;;;;;5051420;28;20021;-40
2022/12/25 00:29:34;;;;;;;27.17;10.13;;;9.90;99.90;;;;;;5051653;28;20406;-40
2022/12/25 00:32:00;;;;;;;24.17;9.38;;;9.90;99.90;;;;;;5052770;28;20035;-39
2022/12/25 00:34:25;;;;;;;31.60;8.85;;;9.80;99.90;;;;;;5051547;28;20031;-39
2022/12/25 00:36:51;;;;;;;17.55;8.50;;;9.90;99.90;;;;;;5051719;28;20047;-41
2022/12/25 00:39:17;;;;;;;18.27;8.43;;;9.90;99.90;;;;;;5051376;28;20035;-39
2022/12/25 00:44:27;;;;;;;24.60;9.02;;;9.90;99.90;;;;;;5051600;28;20032;-39
2022/12/25 00:46:52;;;;;;;18.67;8.70;;;9.80;99.90;;;;;;5051342;28;20028;-39
2022/12/25 00:49:19;;;;;;;18.75;8.45;;;9.80;99.90;;;;;;5051163;28;20060;-41
2022/12/25 00:51:45;;;;;;;25.55;8.27;;;9.80;99.90;;;;;;5051252;28;20021;-35
2022/12/25 00:54:10;;;;;;;16.85;8.93;;;9.80;99.90;;;;;;5050682;28;20017;-39
2022/12/25 00:56:36;;;;;;;17.05;8.13;;;9.90;99.90;;;;;;5051237;28;20027;-40
2022/12/25 00:59:01;;;;;;;22.38;9.00;;;9.90;99.90;;;;;;5033144;28;20085;-39
2022/12/25 01:01:27;;;;;;;22.70;7.57;;;9.80;99.90;;;;;;5051296;28;20473;-38
2022/12/25 01:03:53;;;;;;;23.00;8.40;;;9.80;99.90;;;;;;5032693;28;20044;-42
2022/12/25 01:06:19;;;;;;;26.73;9.45;;;9.90;99.90;;;;;;5050990;28;20029;-40
2022/12/25 01:11:29;;;;;;;17.15;7.90;;;9.90;99.90;;;;;;5055218;28;20028;-54
2022/12/25 01:13:54;;;;;;;17.30;8.13;;;9.90;99.90;;;;;;5054475;28;20204;-40
2022/12/25 01:16:20;;;;;;;19.50;8.02;;;9.90;99.90;;;;;;5055325;28;20048;-37
2022/12/25 01:18:46;;;;;;;22.83;10.55;;;9.90;99.90;;;;;;5055358;28;20021;-40
2022/12/25 01:21:18;;;;;;;22.85;10.85;;;10.00;99.90;;;;;;5056352;28;20029;-41
2022/12/25 01:23:44;;;;;;;19.77;8.57;;;10.00;99.90;;;;;;5054452;28;20021;-40
2022/12/25 01:26:12;;;;;;;20.20;8.10;;;10.00;99.90;;;;;;5055153;28;20025;-41
2022/12/25 01:28:38;;;;;;;16.65;8.95;;;10.00;99.90;;;;;;5036926;28;20032;-41
2022/12/25 01:31:07;;;;;;;20.63;8.95;;;10.00;99.90;;;;;;5055172;28;20031;-39
2022/12/25 01:33:32;;;;;;;16.67;8.13;;;10.00;99.90;;;;;;5054263;28;20024;-38
2022/12/25 01:35:58;;;;;;;18.23;8.48;;;10.00;99.90;;;;;;5054703;28;20025;-43
2022/12/25 01:38:23;;;;;;;22.60;8.48;;;10.00;99.90;;;;;;5054853;28;20033;-40
2022/12/25 01:40:49;;;;;;;21.23;8.85;;;10.00;99.90;;;;;;5054937;28;20568;-40
2022/12/25 01:43:23;;;;;;;23.95;8.35;;;9.90;99.90;;;;;;5036312;28;20035;-41
2022/12/25 01:45:51;;;;;;;20.73;8.57;;;9.90;99.90;;;;;;5054652;28;20029;-40
2022/12/25 01:48:21;;;;;;;18.85;7.95;;;9.90;99.90;;;;;;5054730;28;20044;-43
2022/12/25 01:50:54;;;;;;;17.52;7.78;;;9.90;99.90;;;;;;5054769;28;20056;-42
2022/12/25 01:53:21;;;;;;;18.25;8.65;;;9.90;99.90;;;;;;5054113;28;20025;-39
2022/12/25 01:55:48;;;;;;;22.52;7.95;;;9.90;99.90;;;;;;5054853;28;20025;-40
2022/12/25 01:58:15;;;;;;;15.20;7.65;;;9.90;99.90;;;;;;5036287;28;20029;-39
2022/12/25 02:00:41;;;;;;;18.15;7.68;;;9.80;99.90;;;;;;5054650;28;20370;-40
2022/12/25 02:03:06;;;;;;;20.85;8.27;;;9.80;99.90;;;;;;5053292;28;20036;-39
2022/12/25 02:05:33;;;;;;;25.58;11.23;;;9.70;99.90;;;;;;5053523;28;20033;-38
2022/12/25 02:08:05;;;;;;;124.38;74.05;;;9.70;99.90;;;;;;5054607;28;20127;-40
2022/12/25 02:10:30;;;;;;;17.08;8.68;;;9.70;99.90;;;;;;5054462;28;20102;-39
2022/12/25 02:12:56;;;;;;;20.27;7.57;;;9.70;99.90;;;;;;5053555;28;20492;-40
2022/12/25 02:15:27;;;;;;;18.02;7.45;;;9.70;99.90;;;;;;5054113;28;20036;-43
2022/12/25 02:18:07;;;;;;;16.27;6.70;;;9.60;99.90;;;;;;5054138;28;20025;-36
2022/12/25 02:20:57;;;;;;;23.55;6.90;;;9.60;99.90;;;;;;5053861;28;20017;-39
2022/12/25 02:23:40;;;;;;;11.70;7.20;;;9.60;99.90;;;;;;5053426;28;20025;-39
2022/12/25 02:26:39;;;;;;;13.65;6.20;;;9.50;99.90;;;;;;5053844;28;20029;-39
2022/12/25 02:29:20;;;;;;;10.65;5.60;;;9.50;99.90;;;;;;5054172;28;20029;-39
2022/12/25 02:32:03;;;;;;;15.30;6.60;;;9.50;99.90;;;;;;5053667;28;20028;-35
2022/12/25 02:34:44;;;;;;;14.15;6.35;;;9.50;99.90;;;;;;5054124;28;20025;-38
2022/12/25 02:37:27;;;;;;;11.57;5.97;;;9.50;99.90;;;;;;5053914;28;20025;-40
2022/12/25 02:40:04;;;;;;;11.35;6.25;;;9.50;99.90;;;;;;5053865;28;20587;-41
2022/12/25 03:08:46;;;;;;;10.10;5.55;;;9.50;99.90;;;;;;5053938;28;20464;-40
2022/12/25 03:11:31;;;;;;;14.20;6.93;;;9.50;99.90;;;;;;5053532;28;20060;-38
2022/12/25 03:16:49;;;;;;;15.55;5.53;;;9.50;99.90;;;;;;5053258;28;20485;-39
2022/12/25 03:16:52;;;;;;;13.63;5.38;;;9.50;99.90;;;;;;5053798;28;20036;-40
2022/12/25 03:27:36;;;;;;;7.90;5.90;;;9.60;99.90;;;;;;5053254;28;20048;-38
2022/12/25 03:33:04;;;;;;;10.30;5.00;;;9.60;99.90;;;;;;5051888;28;20109;-40
2022/12/25 03:36:04;;;;;;;9.80;4.88;;;9.60;99.90;;;;;;5052872;28;20048;-39
2022/12/25 04:37:19;;;;;;;12.80;5.70;;;9.80;99.90;;;;;;5051863;28;20039;-38
2022/12/25 04:39:44;;;;;;;16.20;6.13;;;9.80;99.90;;;;;;5052028;28;20037;-38
2022/12/25 04:42:10;;;;;;;8.98;5.30;;;9.90;99.90;;;;;;5051648;28;20044;-40
2022/12/25 04:44:35;;;;;;;15.50;4.95;;;9.80;99.90;;;;;;5051869;28;20393;-39
2022/12/25 04:47:01;;;;;;;10.05;5.10;;;9.80;99.90;;;;;;5053171;28;20037;-40
2022/12/25 04:49:26;;;;;;;12.38;4.68;;;9.80;99.90;;;;;;5052615;28;20454;-41
2022/12/25 04:51:52;;;;;;;10.90;5.03;;;9.80;99.90;;;;;;5051313;28;20021;-36
2022/12/25 04:54:17;;;;;;;9.77;4.60;;;9.80;99.90;;;;;;5051342;28;20507;-37
2022/12/25 04:56:43;;;;;;;8.27;5.15;;;9.80;99.90;;;;;;5051635;28;20033;-39
2022/12/25 04:59:09;;;;;;;7.43;4.57;;;9.80;99.90;;;;;;5051217;28;20516;-39
2022/12/25 05:01:34;;;;;;;9.45;5.18;;;9.90;99.90;;;;;;5051655;28;20078;-40
2022/12/25 05:04:00;;;;;;;7.10;4.75;;;9.90;99.90;;;;;;5050341;28;20028;-36
2022/12/25 05:06:26;;;;;;;12.75;5.30;;;9.90;99.90;;;;;;5051664;28;20029;-38
2022/12/25 05:08:52;;;;;;;12.40;5.00;;;9.90;99.90;;;;;;5051487;28;20104;-39
2022/12/25 05:11:17;;;;;;;11.82;4.75;;;9.80;99.90;;;;;;5051538;28;20228;-38
2022/12/25 05:13:43;;;;;;;11.65;5.25;;;9.80;99.90;;;;;;5050634;28;20025;-40
2022/12/25 05:16:14;;;;;;;6.63;4.30;;;9.80;99.90;;;;;;5051171;28;20044;-40
2022/12/25 05:18:40;;;;;;;7.20;4.32;;;9.80;99.90;;;;;;5051252;28;20027;-39
2022/12/25 05:21:06;;;;;;;9.88;4.63;;;9.80;99.90;;;;;;5051222;28;20108;-39
2022/12/25 05:23:32;;;;;;;9.90;4.65;;;9.80;99.90;;;;;;5050617;28;20047;-41
2022/12/25 05:25:58;;;;;;;21.85;5.95;;;9.80;99.90;;;;;;5051070;28;20021;-39
2022/12/25 05:28:24;;;;;;;12.80;4.60;;;9.80;99.90;;;;;;5051249;28;20032;-38
2022/12/25 05:30:49;;;;;;;10.02;5.00;;;9.80;99.90;;;;;;5051145;28;20018;-39
2022/12/25 05:33:15;;;;;;;10.50;4.97;;;9.90;99.90;;;;;;5050528;28;20396;-39
2022/12/25 05:35:40;;;;;;;12.15;5.18;;;9.90;99.90;;;;;;5050950;28;20036;-39
2022/12/25 05:38:06;;;;;;;9.10;4.40;;;9.80;99.90;;;;;;5051126;28;20032;-39
2022/12/25 05:40:33;;;;;;;9.73;5.00;;;9.80;99.90;;;;;;5051718;28;20025;-41
2022/12/25 05:42:58;;;;;;;21.63;5.82;;;9.80;99.90;;;;;;5050367;28;20107;-41
2022/12/25 05:45:24;;;;;;;9.32;4.68;;;9.80;99.90;;;;;;5050975;28;20036;-37
2022/12/25 05:47:50;;;;;;;9.32;5.20;;;9.80;99.90;;;;;;5050881;28;20507;-39
2022/12/25 05:50:15;;;;;;;10.63;5.60;;;9.80;99.90;;;;;;5050936;28;20443;-40
2022/12/25 05:52:41;;;;;;;15.45;5.35;;;9.70;99.90;;;;;;5050353;28;20021;-39
2022/12/25 05:55:07;;;;;;;15.60;6.03;;;9.70;99.90;;;;;;5050817;28;20404;-40
2022/12/25 05:57:38;;;;;;;12.57;6.22;;;9.70;99.90;;;;;;5055310;28;20036;-37
2022/12/25 06:00:05;;;;;;;12.13;5.85;;;9.60;99.90;;;;;;5054641;28;20386;-40
2022/12/25 06:02:30;;;;;;;12.98;5.47;;;9.60;99.90;;;;;;5053539;28;20119;-38
2022/12/25 06:04:56;;;;;;;7.18;4.70;;;9.70;99.90;;;;;;5054389;28;20049;-39
2022/12/25 06:07:22;;;;;;;18.23;6.00;;;9.70;99.90;;;;;;5054199;28;20047;-40
2022/12/25 06:09:47;;;;;;;12.57;5.13;;;9.70;99.90;;;;;;5054223;28;20047;-42
2022/12/25 06:12:13;;;;;;;11.98;6.70;;;9.70;99.90;;;;;;5054057;28;20095;-49
2022/12/25 06:14:38;;;;;;;17.65;5.43;;;9.70;99.90;;;;;;5054237;28;20052;-44
2022/12/25 06:17:04;;;;;;;12.02;5.07;;;9.70;99.90;;;;;;5053852;28;20074;-42
2022/12/25 06:19:29;;;;;;;10.68;4.75;;;9.80;99.90;;;;;;5053992;28;20024;-39
2022/12/25 06:21:55;;;;;;;10.63;5.03;;;9.80;99.90;;;;;;5053950;28;20116;-40
2022/12/25 06:24:22;;;;;;;9.82;5.07;;;9.80;99.90;;;;;;5054427;28;20025;-42
2022/12/25 06:26:48;;;;;;;12.30;5.07;;;9.80;99.90;;;;;;5053824;28;20041;-41
2022/12/25 06:29:14;;;;;;;10.82;5.47;;;9.90;99.90;;;;;;5053888;28;20028;-41
2022/12/25 06:31:40;;;;;;;9.05;5.35;;;10.00;99.90;;;;;;5054406;28;20028;-40
2022/12/25 06:34:05;;;;;;;14.70;5.30;;;10.00;99.90;;;;;;5035315;28;20021;-39
2022/12/25 06:36:31;;;;;;;11.40;5.05;;;10.00;99.90;;;;;;5054056;28;20025;-40
2022/12/25 06:38:59;;;;;;;8.90;5.28;;;9.90;99.90;;;;;;5036048;28;20431;-39
2022/12/25 06:41:27;;;;;;;29.95;5.82;;;9.80;99.90;;;;;;5053710;28;20025;-44
2022/12/25 06:43:58;;;;;;;10.15;4.88;;;9.80;99.90;;;;;;5053156;28;20104;-39
2022/12/25 06:46:26;;;;;;;12.23;4.72;;;9.80;99.90;;;;;;5035639;28;20032;-40
2022/12/25 06:48:52;;;;;;;7.43;4.72;;;9.70;99.90;;;;;;5035635;28;20048;-41
2022/12/25 06:51:24;;;;;;;11.25;4.88;;;9.70;99.90;;;;;;5053404;28;20021;-38
2022/12/25 06:53:51;;;;;;;9.05;5.03;;;9.70;99.90;;;;;;5053006;28;20021;-42
2022/12/25 06:56:19;;;;;;;18.85;5.05;;;9.80;99.90;;;;;;5053583;28;20035;-39
2022/12/25 06:58:47;;;;;;;11.38;4.65;;;9.80;99.90;;;;;;5053249;28;20125;-41
2022/12/25 07:01:27;;;;;;;8.52;4.50;;;9.80;99.90;;;;;;5054175;28;20044;-38
2022/12/25 07:04:02;;;;;;;7.90;5.28;;;9.80;99.90;;;;;;5052935;28;20028;-36
2022/12/25 07:06:28;;;;;;;7.55;4.35;;;9.80;99.90;;;;;;5053060;28;20029;-38
2022/12/25 07:08:53;;;;;;;10.38;5.05;;;9.80;99.90;;;;;;5052709;28;20092;-38
2022/12/25 07:11:19;;;;;;;10.77;4.78;;;9.80;99.90;;;;;;5053100;28;20036;-40
2022/12/25 07:13:45;;;;;;;9.32;5.15;;;9.80;99.90;;;;;;5034512;28;20032;-39
2022/12/25 07:16:11;;;;;;;12.77;5.28;;;9.90;99.90;;;;;;5053101;28;20412;-39
2022/12/25 07:18:37;;;;;;;13.50;6.60;;;9.80;99.90;;;;;;5053273;28;20029;-40
2022/12/25 07:21:14;;;;;;;10.73;5.43;;;9.80;99.90;;;;;;5053123;28;20029;-39
2022/12/25 07:23:41;;;;;;;11.20;5.57;;;9.80;99.90;;;;;;5052103;28;20032;-37
2022/12/25 07:26:09;;;;;;;10.82;6.13;;;9.80;99.90;;;;;;5053497;28;20369;-39
2022/12/25 07:28:34;;;;;;;18.27;7.13;;;9.80;99.90;;;;;;5035399;28;20487;-40
2022/12/25 07:31:02;;;;;;;12.52;6.35;;;9.90;99.90;;;;;;5035300;28;20029;-38
2022/12/25 07:33:28;;;;;;;11.10;5.15;;;9.90;99.90;;;;;;5053332;28;20017;-39
2022/12/25 07:35:53;;;;;;;14.02;7.35;;;10.00;99.90;;;;;;5053219;28;20029;-38
2022/12/25 07:38:18;;;;;;;10.57;4.25;;;10.10;99.90;;;;;;5053003;28;20056;-38
2022/12/25 07:40:45;;;;;;;10.27;4.35;;;10.10;99.90;;;;;;5053105;28;20108;-38
2022/12/25 07:43:11;;;;;;;13.88;4.95;;;10.10;99.90;;;;;;5052052;28;20488;-39
2022/12/25 07:45:36;;;;;;;8.35;4.22;;;10.00;99.90;;;;;;5052567;28;20086;-39
2022/12/25 07:48:02;;;;;;;9.07;4.55;;;10.00;99.90;;;;;;5052576;28;20024;-39
2022/12/25 07:50:27;;;;;;;12.68;4.65;;;10.00;99.90;;;;;;5053032;28;20032;-38
2022/12/25 07:52:54;;;;;;;8.48;4.43;;;10.00;99.90;;;;;;5051965;28;20029;-38
2022/12/25 07:55:20;;;;;;;10.25;4.80;;;10.10;99.90;;;;;;5052555;28;20032;-38
2022/12/25 07:57:45;;;;;;;11.82;5.03;;;10.10;99.90;;;;;;5034603;28;20392;-39
2022/12/25 08:00:12;;;;;;;9.50;5.20;;;10.10;99.90;;;;;;5052023;28;20036;-41
2022/12/25 08:02:38;;;;;;;11.18;4.75;;;10.20;99.90;;;;;;5051549;28;20032;-46
2022/12/25 08:05:04;;;;;;;9.00;4.55;;;10.20;99.90;;;;;;5052365;28;20436;-45
2022/12/25 08:07:29;;;;;;;11.45;4.85;;;10.30;99.90;;;;;;5051952;28;20033;-39
2022/12/25 08:09:55;;;;;;;11.27;4.50;;;10.30;99.90;;;;;;5052320;28;20021;-41
2022/12/25 08:12:20;;;;;;;10.18;4.80;;;10.30;99.90;;;;;;5059150;28;20451;-41
2022/12/25 08:14:46;;;;;;;7.95;4.72;;;10.40;99.90;;;;;;5072258;28;20021;-40
2022/12/25 08:17:11;;;;;;;9.00;4.90;;;10.40;99.90;;;;;;5072040;28;20060;-39
2022/12/25 08:19:37;;;;;;;12.50;4.80;;;10.40;99.90;;;;;;5071474;28;20024;-40
2022/12/25 08:22:02;;;;;;;23.00;9.05;;;10.40;99.90;;;;;;5071248;28;20111;-43
2022/12/25 08:24:28;;;;;;;22.25;7.03;;;10.20;99.90;;;;;;5071916;28;20025;-39
2022/12/25 08:26:53;;;;;;;11.50;5.75;;;10.30;99.90;;;;;;5050270;28;20438;-38
2022/12/25 08:29:19;;;;;;;11.18;6.07;;;10.30;99.90;;;;;;5071914;28;20031;-39
2022/12/25 08:31:44;;;;;;;10.55;6.05;;;10.30;99.90;;;;;;5072138;28;20073;-37
2022/12/25 08:34:10;;;;;;;30.08;11.68;;;10.20;99.90;;;;;;5071687;28;20027;-39
2022/12/25 08:36:36;;;;;;;25.60;9.82;;;10.20;99.90;;;;;;5071717;28;20109;-39
2022/12/25 08:39:03;;;;;;;13.80;7.03;;;10.30;99.90;;;;;;5071802;28;20021;-41
2022/12/25 08:41:29;;;;;;;14.05;5.97;;;10.20;99.90;;;;;;5072086;28;20032;-44
2022/12/25 08:43:55;;;;;;;11.93;5.00;;;10.30;99.90;;;;;;5070924;28;20025;-39
2022/12/25 08:46:20;;;;;;;15.23;5.60;;;10.20;99.90;;;;;;5071840;28;20438;-40
2022/12/25 08:48:48;;;;;;;10.60;5.68;;;10.20;99.90;;;;;;5072310;28;20024;-42
2022/12/25 08:51:17;;;;;;;16.63;5.45;;;10.20;99.90;;;;;;5071778;28;20024;-43
2022/12/25 08:53:44;;;;;;;8.27;4.00;;;10.20;99.90;;;;;;5071804;28;20051;-41
2022/12/25 08:56:09;;;;;;;8.90;4.78;;;10.20;99.90;;;;;;5072204;28;20661;-40
2022/12/25 08:58:35;;;;;;;11.52;4.78;;;10.20;99.90;;;;;;5071225;28;20040;-39
2022/12/25 09:01:01;;;;;;;5.32;3.95;;;10.30;99.90;;;;;;5055186;28;20128;-38
2022/12/25 09:03:26;;;;;;;10.18;4.40;;;10.30;99.90;;;;;;5054150;28;20025;-49
2022/12/25 09:05:52;;;;;;;8.30;3.97;;;10.30;99.90;;;;;;5051250;28;20029;-42
2022/12/25 09:08:20;;;;;;;9.25;3.88;;;10.30;99.90;;;;;;5050994;28;20484;-45
2022/12/25 09:10:46;;;;;;;9.23;4.75;;;10.30;99.90;;;;;;5051368;28;20017;-46
2022/12/25 09:13:12;;;;;;;5.90;3.35;;;10.20;99.90;;;;;;5051348;28;20485;-41
2022/12/25 09:15:38;;;;;;;7.97;5.00;;;10.30;99.90;;;;;;5051361;28;20068;-39
2022/12/25 09:18:04;;;;;;;18.45;4.50;;;10.30;99.90;;;;;;5033962;28;20025;-40
2022/12/25 09:20:30;;;;;;;31.30;20.00;;;10.30;99.90;;;;;;5032611;28;20028;-37
2022/12/25 09:22:55;;;;;;;65.72;42.88;;;10.30;99.90;;;;;;5050554;28;20480;-39
2022/12/25 09:25:21;;;;;;;35.17;24.88;;;10.30;99.90;;;;;;5051556;28;20024;-40
2022/12/25 09:27:46;;;;;;;13.18;7.45;;;10.40;99.90;;;;;;5051365;28;20086;-39
2022/12/25 09:30:12;;;;;;;17.27;5.55;;;10.40;99.90;;;;;;5033701;28;20112;-37
2022/12/25 09:32:39;;;;;;;11.25;5.03;;;10.40;99.90;;;;;;5054335;28;20032;-37
2022/12/25 09:35:06;;;;;;;9.30;5.03;;;10.40;99.90;;;;;;5054843;28;20025;-37
2022/12/25 09:37:31;;;;;;;6.20;4.10;;;10.50;99.90;;;;;;5055434;28;20036;-40
2022/12/25 09:39:57;;;;;;;12.63;4.93;;;10.50;99.90;;;;;;5055124;28;20113;-39
2022/12/25 09:42:27;;;;;;;8.90;5.18;;;10.60;99.90;;;;;;5055494;28;20029;-40
2022/12/25 09:45:15;;;;;;;10.80;5.78;;;10.60;99.90;;;;;;5055168;28;20109;-40
2022/12/25 09:47:44;;;;;;;5.90;4.70;;;10.60;99.90;;;;;;5063604;28;20549;-40
2022/12/25 09:50:12;;;;;;;11.60;6.82;;;10.60;99.90;;;;;;5060944;28;20025;-40
2022/12/25 09:52:42;;;;;;;12.07;6.47;;;10.70;99.90;;;;;;5053979;28;20063;-39
2022/12/25 09:55:18;;;;;;;12.82;5.38;;;10.60;99.90;;;;;;5055652;28;20516;-36
2022/12/25 09:57:45;;;;;;;6.93;4.45;;;10.60;99.90;;;;;;5054998;28;20477;-43
2022/12/25 10:00:16;;;;;;;11.88;5.88;;;10.60;99.90;;;;;;5053569;28;20572;-42
2022/12/25 10:03:04;;;;;;;10.35;6.53;;;10.60;99.90;;;;;;5060634;28;20060;-42
2022/12/25 10:06:00;;;;;;;9.70;5.75;;;10.50;99.90;;;;;;5054405;28;20424;-42
2022/12/25 10:08:52;;;;;;;7.93;5.20;;;10.50;99.90;;;;;;5038105;28;20107;-52
2022/12/25 10:11:32;;;;;;;13.85;5.53;;;10.70;99.90;;;;;;5054513;28;20027;-42
2022/12/25 10:14:04;;;;;;;15.45;7.38;;;10.70;99.90;;;;;;5064221;28;20025;-43
2022/12/25 10:17:01;;;;;;;12.10;6.35;;;10.70;99.90;;;;;;5075049;28;20021;-42
2022/12/25 10:19:40;;;;;;;;;;;10.70;99.90;;;;;;5066074;28;20025;-44
2022/12/25 10:22:41;;;;;;;11.65;6.00;;;10.70;99.90;;;;;;5053430;28;19915;-50
2022/12/25 10:25:22;;;;;;;7.28;5.15;;;10.70;99.90;;;;;;5053299;28;20100;-40
2022/12/25 10:27:58;;;;;;;8.35;4.90;;;10.80;99.90;;;;;;5054834;28;20052;-45
2022/12/25 10:30:26;;;;;;;14.73;5.22;;;10.80;99.90;;;;;;5055133;28;20032;-40
2022/12/25 10:32:53;;;;;;;13.60;6.90;;;10.80;99.90;;;;;;5053118;28;20382;-46
2022/12/25 10:35:21;;;;;;;12.80;5.82;;;10.80;99.90;;;;;;5054246;28;20021;-39
2022/12/25 10:37:59;;;;;;;11.07;4.30;;;10.80;99.90;;;;;;5053882;28;20029;-40
2022/12/25 10:40:55;;;;;;;12.40;5.07;;;10.90;99.90;;;;;;5040070;28;20039;-39
2022/12/25 10:43:32;;;;;;;11.23;5.75;;;10.90;99.90;;;;;;5044250;28;20104;-36
2022/12/25 10:45:58;;;;;;;8.13;4.55;;;11.00;99.90;;;;;;5055428;28;20036;-41
2022/12/25 10:48:32;;;;;;;9.98;4.80;;;11.10;99.90;;;;;;5056302;28;20412;-39
2022/12/25 10:50:57;;;;;;;11.43;4.68;;;11.10;99.90;;;;;;5057141;28;20393;-40
2022/12/25 10:53:28;;;;;;;13.57;4.72;;;11.20;99.90;;;;;;5056569;28;20080;-40
2022/12/25 10:56:03;;;;;;;13.75;4.55;;;11.20;99.90;;;;;;5054975;28;20036;-42
2022/12/25 10:58:29;;;;;;;12.93;5.30;;;11.30;99.90;;;;;;5052690;28;20048;-38
2022/12/25 11:00:58;;;;;;;8.77;4.72;;;11.40;99.90;;;;;;5053713;28;20078;-38
2022/12/25 11:03:28;;;;;;;7.63;4.50;;;11.40;99.90;;;;;;5052765;28;20095;-41
2022/12/25 11:05:53;;;;;;;12.55;6.70;;;11.40;99.90;;;;;;5053173;28;20424;-38
2022/12/25 11:08:21;;;;;;;11.20;6.40;;;11.40;99.90;;;;;;5035367;28;20081;-39
2022/12/25 11:10:54;;;;;;;10.52;5.57;;;11.40;99.90;;;;;;5035551;28;20017;-39
2022/12/25 11:13:23;;;;;;;6.88;4.60;;;11.40;99.90;;;;;;5052997;28;20108;-39
2022/12/25 11:16:01;;;;;;;8.18;5.47;;;11.30;99.90;;;;;;5053553;28;20036;-39
2022/12/25 11:18:31;;;;;;;9.60;5.47;;;11.30;99.90;;;;;;5054717;28;20393;-39
2022/12/25 11:21:00;;;;;;;12.10;5.82;;;11.30;99.90;;;;;;5054062;28;20480;-41
2022/12/25 11:23:28;;;;;;;13.23;5.97;;;11.30;99.90;;;;;;5053566;28;20076;-40
2022/12/25 11:25:59;;;;;;;10.40;5.53;;;11.20;99.90;;;;;;5052663;28;20029;-37
2022/12/25 11:28:26;;;;;;;14.30;5.28;;;11.20;99.90;;;;;;5053215;28;20408;-40
2022/12/25 11:30:58;;;;;;;8.85;5.38;;;11.20;99.90;;;;;;5052862;28;20036;-38
2022/12/25 11:33:29;;;;;;;10.45;6.40;;;11.20;99.90;;;;;;5052448;28;20036;-42
2022/12/25 11:36:00;;;;;;;8.13;5.25;;;11.20;99.90;;;;;;5052941;28;20025;-40
2022/12/25 11:38:27;;;;;;;7.40;4.72;;;11.30;99.90;;;;;;5052965;28;20025;-39
2022/12/25 11:40:57;;;;;;;7.13;4.78;;;11.30;99.90;;;;;;5052633;28;20025;-40
2022/12/25 11:43:32;;;;;;;7.65;4.75;;;11.30;99.90;;;;;;5052179;28;20055;-40
2022/12/25 11:46:09;;;;;;;16.90;5.30;;;11.20;99.90;;;;;;5052767;28;20098;-42
2022/12/25 11:48:41;;;;;;;9.60;5.53;;;11.30;99.90;;;;;;5053178;28;20397;-39
2022/12/25 11:51:08;;;;;;;6.65;5.13;;;11.30;99.90;;;;;;5052537;28;20021;-40
2022/12/25 11:53:40;;;;;;;10.48;5.28;;;11.30;99.90;;;;;;5033646;28;20029;-41
2022/12/25 11:56:10;;;;;;;8.98;5.35;;;11.30;99.90;;;;;;5053795;28;20048;-41
2022/12/25 11:58:40;;;;;;;10.02;5.50;;;11.30;99.90;;;;;;5078489;22;20547;-39
2022/12/25 12:01:17;;;;;;;12.57;5.88;;;11.30;99.90;;;;;;5092702;28;20055;-41
2022/12/25 12:03:43;;;;;;;7.50;5.28;;;11.30;99.90;;;;;;5073621;28;20488;-44
2022/12/25 12:06:18;;;;;;;5.60;4.88;;;11.30;99.90;;;;;;5074753;28;20105;-42
2022/12/25 12:08:48;;;;;;;6.70;5.20;;;11.20;99.90;;;;;;5092525;28;20024;-41
2022/12/25 12:11:35;;;;;;;9.15;5.78;;;11.30;99.90;;;;;;5092666;28;20028;-44
2022/12/25 12:14:28;;;;;;;8.50;5.95;;;11.30;99.90;;;;;;5092398;28;20421;-44
2022/12/25 12:16:53;;;;;;;8.40;6.00;;;11.30;99.90;;;;;;5091928;28;20035;-42
2022/12/25 12:19:30;;;;;;;16.58;7.30;;;11.20;99.90;;;;;;5092351;28;20400;-41
2022/12/25 12:21:59;;;;;;;15.85;5.70;;;11.20;99.90;;;;;;5091373;28;20020;-41
2022/12/25 12:24:29;;;;;;;10.15;6.38;;;11.30;99.90;;;;;;5074239;28;20062;-43
2022/12/25 12:27:20;;;;;;;10.73;6.47;;;11.40;99.90;;;;;;5092444;28;20487;-42
2022/12/25 12:29:50;;;;;;;9.20;6.25;;;11.40;99.90;;;;;;5073604;28;20039;-42
2022/12/25 12:32:39;;;;;;;15.75;7.65;;;11.40;99.90;;;;;;5091625;28;20545;-44
2022/12/25 12:35:24;;;;;;;11.30;5.88;;;11.50;99.90;;;;;;5092183;28;20012;-40
2022/12/25 12:37:54;;;;;;;9.73;5.90;;;11.50;99.90;;;;;;5091502;28;20024;-40
2022/12/25 12:40:32;;;;;;;10.38;5.40;;;11.60;99.90;;;;;;5092185;28;20016;-41
2022/12/25 12:42:59;;;;;;;7.70;5.40;;;11.60;99.90;;;;;;5072914;28;20023;-42
2022/12/25 12:45:29;;;;;;;9.50;4.90;;;11.70;99.90;;;;;;5091462;28;20549;-46
2022/12/25 12:47:55;;;;;;;6.82;5.22;;;11.80;99.90;;;;;;5091476;28;20076;-42
2022/12/25 12:50:41;;;;;;;10.18;5.15;;;11.90;99.90;;;;;;5092155;28;20031;-42
2022/12/25 12:53:23;;;;;;;8.52;5.65;;;11.90;99.90;;;;;;5090998;28;20036;-42
2022/12/25 12:55:50;;;;;;;7.82;4.85;;;12.00;99.90;;;;;;5092164;28;20510;-42
2022/12/25 12:58:34;;;;;;;7.10;4.95;;;12.00;99.90;;;;;;5090771;28;20043;-40
2022/12/25 13:01:08;;;;;;;8.02;4.82;;;12.20;99.90;;;;;;5074404;28;20099;-42
2022/12/25 13:03:55;;;;;;;6.55;4.68;;;12.20;99.90;;;;;;5090977;28;20050;-43
2022/12/25 13:06:38;;;;;;;9.68;5.47;;;12.20;99.90;;;;;;5093776;28;20438;-42
2022/12/25 13:09:29;;;;;;;8.07;4.88;;;12.30;99.90;;;;;;5096914;28;20032;-43
2022/12/25 13:11:55;;;;;;;10.43;5.80;;;12.30;99.90;;;;;;5096893;28;20074;-42
2022/12/25 13:14:22;;;;;;;12.63;6.13;;;12.20;99.90;;;;;;5096914;28;20016;-43
2022/12/25 13:16:51;;;;;;;8.82;6.22;;;12.20;99.90;;;;;;5095702;28;20022;-41
2022/12/25 13:19:22;;;;;;;6.45;5.70;;;12.10;99.90;;;;;;5095659;28;20077;-45
2022/12/25 13:22:00;;;;;;;10.05;5.70;;;12.00;99.90;;;;;;5095502;28;20095;-42
2022/12/25 13:24:28;;;;;;;9.85;5.50;;;12.00;99.90;;;;;;5095773;28;20446;-42
2022/12/25 13:26:54;;;;;;;14.38;5.43;;;12.00;99.90;;;;;;5095397;28;20077;-43
2022/12/25 13:29:36;;;;;;;9.10;5.57;;;12.00;99.90;;;;;;5095574;28;20027;-39
2022/12/25 13:32:05;;;;;;;7.63;5.28;;;12.00;99.90;;;;;;5095143;28;20496;-43
2022/12/25 13:34:36;;;;;;;8.05;5.15;;;12.10;99.90;;;;;;5095360;28;20059;-42
2022/12/25 13:37:16;;;;;;;6.78;4.70;;;12.10;99.90;;;;;;5095173;28;20052;-45
2022/12/25 13:39:56;;;;;;;6.22;5.15;;;12.10;99.90;;;;;;5095381;28;20069;-43
2022/12/25 13:42:29;;;;;;;8.38;4.07;;;12.20;99.90;;;;;;5095621;28;20031;-42
2022/12/25 13:45:04;;;;;;;6.90;5.47;;;12.20;99.90;;;;;;5095730;28;20028;-42
2022/12/25 13:47:35;;;;;;;4.45;3.95;;;12.20;99.90;;;;;;5094891;28;20102;-44
2022/12/25 13:50:18;;;;;;;7.60;4.60;;;12.20;99.90;;;;;;5094848;28;20407;-42
2022/12/25 13:52:44;;;;;;;6.28;4.32;;;12.10;99.90;;;;;;5093953;28;20483;-42
2022/12/25 13:55:15;;;;;;;8.80;4.32;;;12.10;99.90;;;;;;5094879;28;20231;-43
2022/12/25 13:58:02;;;;;;;8.27;5.22;;;12.10;99.90;;;;;;5094362;28;20500;-43
2022/12/25 14:00:48;;;;;;;5.28;3.83;;;12.00;99.90;;;;;;5094875;28;20043;-42
2022/12/25 14:03:21;;;;;;;5.70;4.63;;;12.00;99.90;;;;;;5075835;28;20024;-43
2022/12/25 14:05:59;;;;;;;6.05;4.28;;;11.90;99.90;;;;;;5076872;28;20020;-47
2022/12/25 14:08:28;;;;;;;5.68;4.22;;;11.80;99.90;;;;;;5094454;28;20031;-42
2022/12/25 14:10:55;;;;;;;8.55;3.90;;;11.80;99.90;;;;;;5094747;28;20476;-42
2022/12/25 14:13:25;;;;;;;7.47;3.97;;;11.90;99.90;;;;;;5093770;28;20032;-42
2022/12/25 14:15:52;;;;;;;6.55;4.20;;;11.80;99.90;;;;;;5094599;28;20442;-40
2022/12/25 14:18:21;;;;;;;6.15;4.40;;;11.80;99.90;;;;;;5076437;28;20028;-40
2022/12/25 14:21:14;;;;;;;8.25;4.53;;;11.90;99.90;;;;;;5094028;28;20020;-40
2022/12/25 14:23:46;;;;;;;7.97;3.97;;;11.90;99.90;;;;;;5093780;28;20395;-43
2022/12/25 14:26:24;;;;;;;4.97;4.22;;;12.00;99.90;;;;;;5094210;28;20032;-43
2022/12/25 14:29:07;;;;;;;9.13;4.25;;;12.00;99.90;;;;;;5093589;28;20020;-38
2022/12/25 14:31:33;;;;;;;6.35;3.97;;;12.00;99.90;;;;;;5090050;28;20028;-49
2022/12/25 14:34:04;;;;;;;8.57;4.47;;;12.00;99.90;;;;;;5091373;28;20024;-45
2022/12/25 14:36:30;;;;;;;12.23;4.10;;;12.00;99.90;;;;;;5093497;28;20024;-45
2022/12/25 14:39:02;;;;;;;5.10;4.07;;;12.00;99.90;;;;;;5079262;28;20054;-45
2022/12/25 14:41:33;;;;;;;15.25;6.53;;;12.00;99.90;;;;;;5081257;28;20032;-46